sensor_id;sensor_type;location;lat;lon;timestamp;pressure;altitude;pressure_sealevel;temperature;humidity
44309;BME280;30022;55.846;37.340;2023-05-23T00:01:35;75627.75;;;-143.51;100.00
44309;BME280;30022;55.846;37.340;2023-05-23T00:04:04;75118.53;;;-143.51;100.00
44309;BME280;30022;55.846;37.340;2023-05-23T00:06:30;74863.94;;;-143.51;100.00
44309;BME280;30022;55.846;37.340;2023-05-23T00:08:55;74609.38;;;-143.51;100.00
44309;BME280;30022;55.846;37.340;2023-05-23T00:11:21;75373.16;;;-143.51;100.00
44309;BME280;30022;55.846;37.340;2023-05-23T00:13:51;76137.06;;;-143.51;100.00
44309;BME280;30022;55.846;37.340;2023-05-23T00:16:17;76137.06;;;-143.51;100.00
44309;BME280;30022;55.846;37.340;2023-05-23T00:18:42;77155.84;;;-143.51;100.00
44309;BME280;30022;55.846;37.340;2023-05-23T00:21:10;77155.84;;;-143.51;100.00
44309;BME280;30022;55.846;37.340;2023-05-23T00:23:35;77665.31;;;-143.51;100.00
44309;BME280;30022;55.846;37.340;2023-05-23T00:26:02;77155.84;;;-143.51;100.00
44309;BME280;30022;55.846;37.340;2023-05-23T00:28:28;77155.84;;;-143.51;100.00
44309;BME280;30022;55.846;37.340;2023-05-23T00:30:53;77155.84;;;-143.51;100.00
44309;BME280;30022;55.846;37.340;2023-05-23T00:33:19;77665.31;;;-143.51;100.00
44309;BME280;30022;55.846;37.340;2023-05-23T00:35:46;77920.09;;;-143.51;100.00
44309;BME280;30022;55.846;37.340;2023-05-23T00:38:12;78429.69;;;-143.51;100.00
44309;BME280;30022;55.846;37.340;2023-05-23T00:40:38;79449.03;;;-143.51;100.00
44309;BME280;30022;55.846;37.340;2023-05-23T00:43:04;78939.34;;;-143.51;100.00
44309;BME280;30022;55.846;37.340;2023-05-23T00:45:30;79449.03;;;-143.51;100.00
44309;BME280;30022;55.846;37.340;2023-05-23T00:47:55;79449.03;;;-143.51;100.00
44309;BME280;30022;55.846;37.340;2023-05-23T00:50:23;79703.94;;;-143.51;100.00
44309;BME280;30022;55.846;37.340;2023-05-23T00:52:50;79958.81;;;-143.51;100.00
44309;BME280;30022;55.846;37.340;2023-05-23T00:55:15;80723.63;;;-143.51;100.00
44309;BME280;30022;55.846;37.340;2023-05-23T00:57:41;79958.81;;;-143.51;100.00
44309;BME280;30022;55.846;37.340;2023-05-23T01:00:09;80213.75;;;-143.51;100.00
44309;BME280;30022;55.846;37.340;2023-05-23T01:02:36;79958.81;;;-143.51;100.00
44309;BME280;30022;55.846;37.340;2023-05-23T01:05:05;80213.75;;;-143.51;100.00
44309;BME280;30022;55.846;37.340;2023-05-23T01:07:31;79703.94;;;-143.51;100.00
44309;BME280;30022;55.846;37.340;2023-05-23T01:09:57;79703.94;;;-143.51;100.00
44309;BME280;30022;55.846;37.340;2023-05-23T01:12:33;80723.63;;;-143.51;100.00
44309;BME280;30022;55.846;37.340;2023-05-23T01:15:06;80723.63;;;-143.51;100.00
44309;BME280;30022;55.846;37.340;2023-05-23T01:20:21;80978.56;;;-143.51;100.00
44309;BME280;30022;55.846;37.340;2023-05-23T01:28:10;78939.34;;;-143.51;100.00
44309;BME280;30022;55.846;37.340;2023-05-23T01:30:39;77665.31;;;-143.51;100.00
44309;BME280;30022;55.846;37.340;2023-05-23T01:33:06;77155.84;;;-143.51;100.00
44309;BME280;30022;55.846;37.340;2023-05-23T01:35:32;76391.72;;;-143.51;100.00
44309;BME280;30022;55.846;37.340;2023-05-23T01:37:59;75373.16;;;-143.51;100.00
44309;BME280;30022;55.846;37.340;2023-05-23T01:40:24;74354.81;;;-143.51;100.00
44309;BME280;30022;55.846;37.340;2023-05-23T01:42:50;73082.28;;;-143.51;100.00
44309;BME280;30022;55.846;37.340;2023-05-23T01:45:17;72573.38;;;-143.51;100.00
44309;BME280;30022;55.846;37.340;2023-05-23T01:47:42;72318.94;;;-143.51;100.00
44309;BME280;30022;55.846;37.340;2023-05-23T01:50:09;71917.44;;;-143.51;100.00
44309;BME280;30022;55.846;37.340;2023-05-23T01:52:35;71396.78;;;-143.51;100.00
44309;BME280;30022;55.846;37.340;2023-05-23T01:55:02;71080.81;;;-143.51;100.00
44309;BME280;30022;55.846;37.340;2023-05-23T01:57:28;70715.22;;;-143.51;100.00
44309;BME280;30022;55.846;37.340;2023-05-23T01:59:55;69807.31;;;-143.51;100.00
44309;BME280;30022;55.846;37.340;2023-05-23T02:02:21;69757.66;;;-143.51;100.00
44309;BME280;30022;55.846;37.340;2023-05-23T02:04:50;69640.47;;;-143.51;100.00
44309;BME280;30022;55.846;37.340;2023-05-23T02:07:17;68724.88;;;-143.51;100.00
44309;BME280;30022;55.846;37.340;2023-05-23T02:09:47;68025.91;;;-143.51;100.00
44309;BME280;30022;55.846;37.340;2023-05-23T02:12:13;67886.94;;;-143.51;100.00
44309;BME280;30022;55.846;37.340;2023-05-23T02:14:38;66159.97;;;-143.51;100.00
44309;BME280;30022;55.846;37.340;2023-05-23T02:17:06;64925.75;;;-143.51;100.00
44309;BME280;30022;55.846;37.340;2023-05-23T02:19:34;63340.84;;;-143.51;100.00
44309;BME280;30022;55.846;37.340;2023-05-23T02:22:00;62359.28;;;-143.51;100.00
44309;BME280;30022;55.846;37.340;2023-05-23T02:24:26;61994.50;;;-143.51;100.00
44309;BME280;30022;55.846;37.340;2023-05-23T02:26:52;61726.88;;;-143.51;100.00
44309;BME280;30022;55.846;37.340;2023-05-23T02:29:17;61235.25;;;-143.51;100.00
44309;BME280;30022;55.846;37.340;2023-05-23T02:31:44;60807.16;;;-143.51;100.00
44309;BME280;30022;55.846;37.340;2023-05-23T02:34:10;59582.50;;;-143.51;100.00
44309;BME280;30022;55.846;37.340;2023-05-23T02:36:35;58314.66;;;-143.51;100.00
44309;BME280;30022;55.846;37.340;2023-05-23T02:39:02;57314.53;;;-143.51;100.00
44309;BME280;30022;55.846;37.340;2023-05-23T02:41:28;57354.16;;;-143.51;100.00
44309;BME280;30022;55.846;37.340;2023-05-23T02:43:54;57049.22;;;-143.51;100.00
44309;BME280;30022;55.846;37.340;2023-05-23T02:46:20;57037.34;;;-143.51;100.00
44309;BME280;30022;55.846;37.340;2023-05-23T02:48:46;56338.44;;;-143.51;100.00
44309;BME280;30022;55.846;37.340;2023-05-23T02:51:12;56079.09;;;-143.51;100.00
44309;BME280;30022;55.846;37.340;2023-05-23T02:53:38;55245.78;;;-143.51;100.00
44309;BME280;30022;55.846;37.340;2023-05-23T02:56:04;54770.81;;;-143.51;100.00
44309;BME280;30022;55.846;37.340;2023-05-23T02:58:30;54347.38;;;-143.51;100.00
44309;BME280;30022;55.846;37.340;2023-05-23T03:00:56;53763.69;;;-143.51;100.00
44309;BME280;30022;55.846;37.340;2023-05-23T03:03:22;53544.09;;;-143.51;100.00
44309;BME280;30022;55.846;37.340;2023-05-23T03:05:47;53148.44;;;-143.51;100.00
44309;BME280;30022;55.846;37.340;2023-05-23T03:08:13;53000.09;;;-143.51;100.00
44309;BME280;30022;55.846;37.340;2023-05-23T03:10:38;52986.25;;;-143.51;100.00
44309;BME280;30022;55.846;37.340;2023-05-23T03:13:04;52746.91;;;-143.51;100.00
44309;BME280;30022;55.846;37.340;2023-05-23T03:15:30;52507.59;;;-143.51;100.00
44309;BME280;30022;55.846;37.340;2023-05-23T03:17:56;52266.31;;;-143.51;100.00
44309;BME280;30022;55.846;37.340;2023-05-23T03:20:21;51849.06;;;-143.51;100.00
44309;BME280;30022;55.846;37.340;2023-05-23T03:22:47;51329.00;;;-143.51;100.00
44309;BME280;30022;55.846;37.340;2023-05-23T03:25:14;51244.00;;;-143.51;100.00
44309;BME280;30022;55.846;37.340;2023-05-23T03:27:40;51125.38;;;-143.51;100.00
44309;BME280;30022;55.846;37.340;2023-05-23T03:30:06;51062.09;;;-143.51;100.00
44309;BME280;30022;55.846;37.340;2023-05-23T03:32:31;51091.75;;;-143.51;100.00
44309;BME280;30022;55.846;37.340;2023-05-23T03:34:57;50967.19;;;-143.51;100.00
44309;BME280;30022;55.846;37.340;2023-05-23T03:37:23;50627.16;;;-143.51;100.00
44309;BME280;30022;55.846;37.340;2023-05-23T03:39:48;50639.03;;;-143.51;100.00
44309;BME280;30022;55.846;37.340;2023-05-23T03:42:14;50427.53;;;-143.51;100.00
44309;BME280;30022;55.846;37.340;2023-05-23T03:44:39;50453.22;;;-143.51;100.00
44309;BME280;30022;55.846;37.340;2023-05-23T03:47:06;50216.00;;;-143.51;100.00
44309;BME280;30022;55.846;37.340;2023-05-23T03:49:33;50186.38;;;-143.51;100.00
44309;BME280;30022;55.846;37.340;2023-05-23T03:52:00;49609.22;;;-143.51;100.00
44309;BME280;30022;55.846;37.340;2023-05-23T03:54:25;49587.50;;;-143.51;100.00
44309;BME280;30022;55.846;37.340;2023-05-23T03:56:51;49860.22;;;-143.51;100.00
44309;BME280;30022;55.846;37.340;2023-05-23T03:59:17;49621.09;;;-143.51;100.00
44309;BME280;30022;55.846;37.340;2023-05-23T04:01:43;49787.09;;;-143.51;100.00
44309;BME280;30022;55.846;37.340;2023-05-23T04:04:09;49797.00;;;-143.51;100.00
44309;BME280;30022;55.846;37.340;2023-05-23T04:06:36;49751.53;;;-143.51;100.00
44309;BME280;30022;55.846;37.340;2023-05-23T04:09:02;49324.66;;;-143.51;100.00
44309;BME280;30022;55.846;37.340;2023-05-23T04:11:31;49277.22;;;-143.51;100.00
44309;BME280;30022;55.846;37.340;2023-05-23T04:13:57;49051.94;;;-143.51;100.00
44309;BME280;30022;55.846;37.340;2023-05-23T04:16:23;48945.25;;;-143.51;100.00
44309;BME280;30022;55.846;37.340;2023-05-23T04:18:48;48866.19;;;-143.51;100.00
44309;BME280;30022;55.846;37.340;2023-05-23T04:21:14;48718.00;;;-143.51;100.00
44309;BME280;30022;55.846;37.340;2023-05-23T04:23:56;48542.16;;;-143.51;100.00
44309;BME280;30022;55.846;37.340;2023-05-23T04:26:21;48524.38;;;-143.51;100.00
44309;BME280;30022;55.846;37.340;2023-05-23T04:28:50;48431.50;;;-143.51;100.00
44309;BME280;30022;55.846;37.340;2023-05-23T04:31:19;48411.75;;;-143.51;100.00
44309;BME280;30022;55.846;37.340;2023-05-23T04:33:47;48324.81;;;-143.51;100.00
44309;BME280;30022;55.846;37.340;2023-05-23T04:36:13;48356.44;;;-143.51;100.00
44309;BME280;30022;55.846;37.340;2023-05-23T04:38:43;48393.97;;;-143.51;100.00
44309;BME280;30022;55.846;37.340;2023-05-23T04:41:09;48293.22;;;-143.51;100.00
44309;BME280;30022;55.846;37.340;2023-05-23T04:43:50;48307.03;;;-143.51;100.00
44309;BME280;30022;55.846;37.340;2023-05-23T04:46:27;48279.38;;;-143.51;100.00
44309;BME280;30022;55.846;37.340;2023-05-23T04:49:05;48311.00;;;-143.51;100.00
44309;BME280;30022;55.846;37.340;2023-05-23T04:51:31;48356.44;;;-143.51;100.00
44309;BME280;30022;55.846;37.340;2023-05-23T04:54:08;48401.88;;;-143.51;100.00
44309;BME280;30022;55.846;37.340;2023-05-23T04:56:33;48384.09;;;-143.51;100.00
44309;BME280;30022;55.846;37.340;2023-05-23T04:58:59;48265.56;;;-143.51;100.00
44309;BME280;30022;55.846;37.340;2023-05-23T05:01:26;48305.06;;;-143.51;100.00
44309;BME280;30022;55.846;37.340;2023-05-23T05:03:52;48206.28;;;-143.51;100.00
44309;BME280;30022;55.846;37.340;2023-05-23T05:06:18;48160.84;;;-143.51;100.00
44309;BME280;30022;55.846;37.340;2023-05-23T05:08:45;48160.84;;;-143.51;100.00
44309;BME280;30022;55.846;37.340;2023-05-23T05:11:11;48113.44;;;-143.51;100.00
44309;BME280;30022;55.846;37.340;2023-05-23T05:13:37;48093.69;;;-143.51;100.00
44309;BME280;30022;55.846;37.340;2023-05-23T05:16:03;48054.16;;;-143.51;100.00
44309;BME280;30022;55.846;37.340;2023-05-23T05:18:29;48068.00;;;-143.51;100.00
44309;BME280;30022;55.846;37.340;2023-05-23T05:20:56;48071.94;;;-143.51;100.00
44309;BME280;30022;55.846;37.340;2023-05-23T05:23:25;48024.53;;;-143.51;100.00
44309;BME280;30022;55.846;37.340;2023-05-23T05:25:55;47975.13;;;-143.51;100.00
44309;BME280;30022;55.846;37.340;2023-05-23T05:28:21;47967.25;;;-143.51;100.00
44309;BME280;30022;55.846;37.340;2023-05-23T05:30:49;47979.09;;;-143.51;100.00
44309;BME280;30022;55.846;37.340;2023-05-23T05:33:20;47898.09;;;-143.51;100.00
44309;BME280;30022;55.846;37.340;2023-05-23T05:35:55;47862.53;;;-143.51;100.00
44309;BME280;30022;55.846;37.340;2023-05-23T05:38:21;47896.13;;;-143.51;100.00
44309;BME280;30022;55.846;37.340;2023-05-23T05:40:47;47846.72;;;-143.51;100.00
44309;BME280;30022;55.846;37.340;2023-05-23T05:43:14;47771.66;;;-143.51;100.00
44309;BME280;30022;55.846;37.340;2023-05-23T05:45:40;47732.16;;;-143.51;100.00
44309;BME280;30022;55.846;37.340;2023-05-23T05:48:06;47714.38;;;-143.51;100.00
44309;BME280;30022;55.846;37.340;2023-05-23T05:50:33;47686.72;;;-143.51;100.00
44309;BME280;30022;55.846;37.340;2023-05-23T05:52:58;47686.72;;;-143.51;100.00
44309;BME280;30022;55.846;37.340;2023-05-23T05:55:24;47686.72;;;-143.51;100.00
44309;BME280;30022;55.846;37.340;2023-05-23T05:57:52;47647.22;;;-143.51;100.00
44309;BME280;30022;55.846;37.340;2023-05-23T06:00:18;47625.50;;;-143.51;100.00
44309;BME280;30022;55.846;37.340;2023-05-23T06:02:45;47659.06;;;-143.51;100.00
44309;BME280;30022;55.846;37.340;2023-05-23T06:05:24;47639.31;;;-143.51;100.00
44309;BME280;30022;55.846;37.340;2023-05-23T06:07:50;47680.81;;;-143.51;100.00
44309;BME280;30022;55.846;37.340;2023-05-23T06:10:16;47637.34;;;-143.51;100.00
44309;BME280;30022;55.846;37.340;2023-05-23T06:12:42;47615.63;;;-143.51;100.00
44309;BME280;30022;55.846;37.340;2023-05-23T06:15:10;47653.16;;;-143.51;100.00
44309;BME280;30022;55.846;37.340;2023-05-23T06:17:37;47611.66;;;-143.51;100.00
44309;BME280;30022;55.846;37.340;2023-05-23T06:20:03;47655.13;;;-143.51;100.00
44309;BME280;30022;55.846;37.340;2023-05-23T06:22:30;47621.53;;;-143.51;100.00
44309;BME280;30022;55.846;37.340;2023-05-23T06:24:56;47645.25;;;-143.51;100.00
44309;BME280;30022;55.846;37.340;2023-05-23T06:27:22;47617.59;;;-143.51;100.00
44309;BME280;30022;55.846;37.340;2023-05-23T06:29:48;47593.88;;;-143.51;100.00
44309;BME280;30022;55.846;37.340;2023-05-23T06:32:13;47603.75;;;-143.51;100.00
44309;BME280;30022;55.846;37.340;2023-05-23T06:34:39;47639.31;;;-143.51;100.00
44309;BME280;30022;55.846;37.340;2023-05-23T06:37:05;47574.13;;;-143.51;100.00
44309;BME280;30022;55.846;37.340;2023-05-23T06:39:31;47597.84;;;-143.51;100.00
44309;BME280;30022;55.846;37.340;2023-05-23T06:41:56;47605.72;;;-143.51;100.00
44309;BME280;30022;55.846;37.340;2023-05-23T06:44:22;47556.34;;;-143.51;100.00
44309;BME280;30022;55.846;37.340;2023-05-23T06:46:52;47556.34;;;-143.51;100.00
44309;BME280;30022;55.846;37.340;2023-05-23T06:49:24;47580.06;;;-143.51;100.00
44309;BME280;30022;55.846;37.340;2023-05-23T06:51:50;47562.28;;;-143.51;100.00
44309;BME280;30022;55.846;37.340;2023-05-23T06:54:16;47585.97;;;-143.51;100.00
44309;BME280;30022;55.846;37.340;2023-05-23T06:56:42;47548.44;;;-143.51;100.00
44309;BME280;30022;55.846;37.340;2023-05-23T06:59:08;47471.41;;;-143.51;100.00
44309;BME280;30022;55.846;37.340;2023-05-23T07:01:34;47495.13;;;-143.51;100.00
44309;BME280;30022;55.846;37.340;2023-05-23T07:04:00;47483.28;;;-143.51;100.00
44309;BME280;30022;55.846;37.340;2023-05-23T07:06:25;47487.22;;;-143.51;100.00
44309;BME280;30022;55.846;37.340;2023-05-23T07:08:56;47514.88;;;-143.51;100.00
44309;BME280;30022;55.846;37.340;2023-05-23T07:11:22;47542.53;;;-143.51;100.00
44309;BME280;30022;55.846;37.340;2023-05-23T07:13:54;47463.50;;;-143.51;100.00
44309;BME280;30022;55.846;37.340;2023-05-23T07:16:32;47505.00;;;-143.51;100.00
44309;BME280;30022;55.846;37.340;2023-05-23T07:19:01;47473.38;;;-143.51;100.00
44309;BME280;30022;55.846;37.340;2023-05-23T07:21:28;47487.22;;;-143.51;100.00
44309;BME280;30022;55.846;37.340;2023-05-23T07:23:54;47510.91;;;-143.51;100.00
44309;BME280;30022;55.846;37.340;2023-05-23T07:26:20;47481.28;;;-143.51;100.00
44309;BME280;30022;55.846;37.340;2023-05-23T07:28:50;47459.56;;;-143.51;100.00
44309;BME280;30022;55.846;37.340;2023-05-23T07:31:16;47437.84;;;-143.51;100.00
44309;BME280;30022;55.846;37.340;2023-05-23T07:33:42;47479.31;;;-143.51;100.00
44309;BME280;30022;55.846;37.340;2023-05-23T07:36:10;47489.19;;;-143.51;100.00
44309;BME280;30022;55.846;37.340;2023-05-23T07:38:36;47408.22;;;-143.51;100.00
44309;BME280;30022;55.846;37.340;2023-05-23T07:41:01;47459.56;;;-143.51;100.00
44309;BME280;30022;55.846;37.340;2023-05-23T07:43:27;47512.91;;;-143.51;100.00
44309;BME280;30022;55.846;37.340;2023-05-23T07:45:52;47495.13;;;-143.51;100.00
44309;BME280;30022;55.846;37.340;2023-05-23T07:48:18;47443.75;;;-143.51;100.00
44309;BME280;30022;55.846;37.340;2023-05-23T07:50:44;47487.22;;;-143.51;100.00
44309;BME280;30022;55.846;37.340;2023-05-23T07:53:11;47457.59;;;-143.51;100.00
44309;BME280;30022;55.846;37.340;2023-05-23T07:55:37;47475.38;;;-143.51;100.00
44309;BME280;30022;55.846;37.340;2023-05-23T07:58:03;47394.38;;;-143.51;100.00
44309;BME280;30022;55.846;37.340;2023-05-23T08:00:30;47406.22;;;-143.51;100.00
44309;BME280;30022;55.846;37.340;2023-05-23T08:03:03;47354.88;;;-143.51;100.00
44309;BME280;30022;55.846;37.340;2023-05-23T08:05:35;47412.16;;;-143.51;100.00
44309;BME280;30022;55.846;37.340;2023-05-23T08:08:00;47358.81;;;-143.51;100.00
44309;BME280;30022;55.846;37.340;2023-05-23T08:10:26;47410.19;;;-143.51;100.00
44309;BME280;30022;55.846;37.340;2023-05-23T08:13:00;47416.09;;;-143.51;100.00
44309;BME280;30022;55.846;37.340;2023-05-23T08:15:34;47394.38;;;-143.51;100.00
44309;BME280;30022;55.846;37.340;2023-05-23T08:18:07;47408.22;;;-143.51;100.00
44309;BME280;30022;55.846;37.340;2023-05-23T08:20:33;47335.13;;;-143.51;100.00
44309;BME280;30022;55.846;37.340;2023-05-23T08:22:59;47293.66;;;-143.51;100.00
44309;BME280;30022;55.846;37.340;2023-05-23T08:25:25;47345.00;;;-143.51;100.00
44309;BME280;30022;55.846;37.340;2023-05-23T08:27:55;47360.81;;;-143.51;100.00
44309;BME280;30022;55.846;37.340;2023-05-23T08:30:35;47348.94;;;-143.51;100.00
44309;BME280;30022;55.846;37.340;2023-05-23T08:33:01;47293.66;;;-143.51;100.00
44309;BME280;30022;55.846;37.340;2023-05-23T08:35:30;47266.00;;;-143.51;100.00
44309;BME280;30022;55.846;37.340;2023-05-23T08:38:03;47305.50;;;-143.51;100.00
44309;BME280;30022;55.846;37.340;2023-05-23T08:40:30;47331.19;;;-143.51;100.00
44309;BME280;30022;55.846;37.340;2023-05-23T08:43:08;47287.72;;;-143.51;100.00
44309;BME280;30022;55.846;37.340;2023-05-23T08:45:37;47267.97;;;-143.51;100.00
44309;BME280;30022;55.846;37.340;2023-05-23T08:48:04;47269.94;;;-143.51;100.00
44309;BME280;30022;55.846;37.340;2023-05-23T08:50:34;47317.34;;;-143.51;100.00
44309;BME280;30022;55.846;37.340;2023-05-23T08:53:02;47291.66;;;-143.51;100.00
44309;BME280;30022;55.846;37.340;2023-05-23T08:55:29;47352.91;;;-143.51;100.00
44309;BME280;30022;55.846;37.340;2023-05-23T08:57:57;47317.34;;;-143.51;100.00
44309;BME280;30022;55.846;37.340;2023-05-23T09:00:46;47299.56;;;-143.51;100.00
44309;BME280;30022;55.846;37.340;2023-05-23T09:03:20;47305.50;;;-143.51;100.00
44309;BME280;30022;55.846;37.340;2023-05-23T09:06:15;47301.53;;;-143.51;100.00
44309;BME280;30022;55.846;37.340;2023-05-23T09:08:43;47297.59;;;-143.51;100.00
44309;BME280;30022;55.846;37.340;2023-05-23T09:11:11;47283.78;;;-143.51;100.00
44309;BME280;30022;55.846;37.340;2023-05-23T09:13:38;47277.84;;;-143.51;100.00
44309;BME280;30022;55.846;37.340;2023-05-23T09:16:09;47289.69;;;-143.51;100.00
44309;BME280;30022;55.846;37.340;2023-05-23T09:18:48;47275.88;;;-143.51;100.00
44309;BME280;30022;55.846;37.340;2023-05-23T09:21:15;47319.31;;;-143.51;100.00
44309;BME280;30022;55.846;37.340;2023-05-23T09:24:19;47358.81;;;-143.51;100.00
44309;BME280;30022;55.846;37.340;2023-05-23T09:26:46;47325.25;;;-143.51;100.00
44309;BME280;30022;55.846;37.340;2023-05-23T09:29:13;47333.16;;;-143.51;100.00
44309;BME280;30022;55.846;37.340;2023-05-23T09:31:41;47309.44;;;-143.51;100.00
44309;BME280;30022;55.846;37.340;2023-05-23T09:34:06;47337.09;;;-143.51;100.00
44309;BME280;30022;55.846;37.340;2023-05-23T09:36:35;47319.31;;;-143.51;100.00
44309;BME280;30022;55.846;37.340;2023-05-23T09:39:02;47350.94;;;-143.51;100.00
44309;BME280;30022;55.846;37.340;2023-05-23T09:41:35;47315.38;;;-143.51;100.00
44309;BME280;30022;55.846;37.340;2023-05-23T09:44:05;47337.09;;;-143.51;100.00
44309;BME280;30022;55.846;37.340;2023-05-23T09:46:33;47301.53;;;-143.51;100.00
44309;BME280;30022;55.846;37.340;2023-05-23T09:48:59;47345.00;;;-143.51;100.00
44309;BME280;30022;55.846;37.340;2023-05-23T09:51:25;47337.09;;;-143.51;100.00
44309;BME280;30022;55.846;37.340;2023-05-23T09:53:51;47364.75;;;-143.51;100.00
44309;BME280;30022;55.846;37.340;2023-05-23T09:56:17;47343.03;;;-143.51;100.00
44309;BME280;30022;55.846;37.340;2023-05-23T09:58:45;47368.69;;;-143.51;100.00
44309;BME280;30022;55.846;37.340;2023-05-23T10:01:11;47380.56;;;-143.51;100.00
44309;BME280;30022;55.846;37.340;2023-05-23T10:03:52;47386.47;;;-143.51;100.00
44309;BME280;30022;55.846;37.340;2023-05-23T10:09:05;47410.19;;;-143.51;100.00
44309;BME280;30022;55.846;37.340;2023-05-23T10:13:58;47394.38;;;-143.51;100.00
44309;BME280;30022;55.846;37.340;2023-05-23T10:16:37;47392.41;;;-143.51;100.00
44309;BME280;30022;55.846;37.340;2023-05-23T10:21:48;47380.56;;;-143.51;100.00
44309;BME280;30022;55.846;37.340;2023-05-23T10:24:14;47360.81;;;-143.51;100.00
44309;BME280;30022;55.846;37.340;2023-05-23T10:26:41;47345.00;;;-143.51;100.00
44309;BME280;30022;55.846;37.340;2023-05-23T10:29:08;47368.69;;;-143.51;100.00
44309;BME280;30022;55.846;37.340;2023-05-23T10:31:33;47414.13;;;-143.51;100.00
44309;BME280;30022;55.846;37.340;2023-05-23T10:34:06;47368.69;;;-143.51;100.00
44309;BME280;30022;55.846;37.340;2023-05-23T10:36:39;47427.97;;;-143.51;100.00
44309;BME280;30022;55.846;37.340;2023-05-23T10:41:53;47435.88;;;-143.51;100.00
44309;BME280;30022;55.846;37.340;2023-05-23T10:44:29;47437.84;;;-143.51;100.00
44309;BME280;30022;55.846;37.340;2023-05-23T10:46:56;47461.53;;;-143.51;100.00
44309;BME280;30022;55.846;37.340;2023-05-23T10:49:39;47471.41;;;-143.51;100.00
44309;BME280;30022;55.846;37.340;2023-05-23T10:52:05;47489.19;;;-143.51;100.00
44309;BME280;30022;55.846;37.340;2023-05-23T10:54:50;47538.56;;;-143.51;100.00
44309;BME280;30022;55.846;37.340;2023-05-23T10:57:25;47520.78;;;-143.51;100.00
44309;BME280;30022;55.846;37.340;2023-05-23T10:59:53;47550.44;;;-143.51;100.00
44309;BME280;30022;55.846;37.340;2023-05-23T11:02:24;47570.19;;;-143.51;100.00
44309;BME280;30022;55.846;37.340;2023-05-23T11:07:34;47589.94;;;-143.51;100.00
44309;BME280;30022;55.846;37.340;2023-05-23T11:10:10;47546.47;;;-143.51;100.00
44309;BME280;30022;55.846;37.340;2023-05-23T11:12:39;47615.63;;;-143.51;100.00
44309;BME280;30022;55.846;37.340;2023-05-23T11:17:54;47661.03;;;-143.51;100.00
44309;BME280;30022;55.846;37.340;2023-05-23T11:20:20;47680.81;;;-143.51;100.00
44309;BME280;30022;55.846;37.340;2023-05-23T11:22:59;47724.25;;;-143.51;100.00
44309;BME280;30022;55.846;37.340;2023-05-23T11:25:44;47749.94;;;-143.51;100.00
44309;BME280;30022;55.846;37.340;2023-05-23T11:28:11;47793.41;;;-143.51;100.00
44309;BME280;30022;55.846;37.340;2023-05-23T11:30:37;47933.66;;;-143.51;100.00
44309;BME280;30022;55.846;37.340;2023-05-23T11:33:12;48168.75;;;-143.51;100.00
44309;BME280;30022;55.846;37.340;2023-05-23T11:35:39;48567.84;;;-143.51;100.00
44309;BME280;30022;55.846;37.340;2023-05-23T11:38:05;49302.91;;;-143.51;100.00
44309;BME280;30022;55.846;37.340;2023-05-23T11:40:32;49241.66;;;-143.51;100.00
44309;BME280;30022;55.846;37.340;2023-05-23T11:42:58;49117.16;;;-143.51;100.00
44309;BME280;30022;55.846;37.340;2023-05-23T11:45:25;49340.47;;;-143.51;100.00
44309;BME280;30022;55.846;37.340;2023-05-23T11:47:51;49508.44;;;-143.51;100.00
44309;BME280;30022;55.846;37.340;2023-05-23T11:50:16;49534.13;;;-143.51;100.00
44309;BME280;30022;55.846;37.340;2023-05-23T11:52:42;49684.34;;;-143.51;100.00
44309;BME280;30022;55.846;37.340;2023-05-23T11:55:08;50411.69;;;-143.51;100.00
44309;BME280;30022;55.846;37.340;2023-05-23T11:57:37;52062.63;;;-143.51;100.00
44309;BME280;30022;55.846;37.340;2023-05-23T12:00:04;52578.81;;;-143.51;100.00
44309;BME280;30022;55.846;37.340;2023-05-23T12:02:31;53809.19;;;-143.51;100.00
44309;BME280;30022;55.846;37.340;2023-05-23T12:04:56;54200.94;;;-143.51;100.00
44309;BME280;30022;55.846;37.340;2023-05-23T12:07:22;54343.41;;;-143.51;100.00
44309;BME280;30022;55.846;37.340;2023-05-23T12:09:47;54228.66;;;-143.51;100.00
44309;BME280;30022;55.846;37.340;2023-05-23T12:12:13;55699.03;;;-143.51;100.00
44309;BME280;30022;55.846;37.340;2023-05-23T12:14:39;58867.31;;;-143.51;100.00
44309;BME280;30022;55.846;37.340;2023-05-23T12:17:10;61691.19;;;-143.51;100.00
44309;BME280;30022;55.846;37.340;2023-05-23T12:19:36;62884.75;;;-143.51;100.00
44309;BME280;30022;55.846;37.340;2023-05-23T12:22:05;67944.50;;;-143.51;100.00
44309;BME280;30022;55.846;37.340;2023-05-23T12:24:34;73640.94;;;-143.51;100.00
44309;BME280;30022;55.846;37.340;2023-05-23T12:27:00;77665.31;;;-143.51;100.00
44309;BME280;30022;55.846;37.340;2023-05-23T12:29:33;79703.94;;;-143.51;100.00
44309;BME280;30022;55.846;37.340;2023-05-23T12:32:00;83018.88;;;-143.51;100.00
44309;BME280;30022;55.846;37.340;2023-05-23T12:34:26;84804.97;;;-143.51;100.00
44309;BME280;30022;55.846;37.340;2023-05-23T12:36:58;85570.66;;;-143.51;100.00
44309;BME280;30022;55.846;37.340;2023-05-23T12:39:29;85315.41;;;-143.51;100.00
44309;BME280;30022;55.846;37.340;2023-05-23T12:42:12;83529.09;;;-143.51;100.00
44309;BME280;30022;55.846;37.340;2023-05-23T12:44:40;80213.75;;;-143.51;100.00
44309;BME280;30022;55.846;37.340;2023-05-23T12:47:06;76901.13;;;-143.51;100.00
44309;BME280;30022;55.846;37.340;2023-05-23T12:49:32;73227.41;;;-143.51;100.00